Time;durP1;ratioP1;P1;durP2;ratioP2;P2;SDS_P1;SDS_P2;PMS_P1;PMS_P2;Temp;Humidity;BMP_temperature;BMP_pressure;BME280_temperature;BME280_humidity;BME280_pressure;Samples;Min_cycle;Max_cycle;Signal;HPM_P1;HPM_P2
2023/07/26 00:01:05;;;;;;;3.47;2.10;;;14.90;1.00;;;;;;20883604;28;20033;-42
2023/07/26 00:11:06;;;;;;;5.68;2.10;;;14.80;1.00;;;;;;20884570;28;20621;-43
2023/07/26 00:21:07;;;;;;;4.60;2.30;;;14.60;1.00;;;;;;20886857;28;20412;-43
2023/07/26 00:31:08;;;;;;;5.00;2.75;;;14.40;1.00;;;;;;20863089;28;20044;-42
2023/07/26 00:41:09;;;;;;;4.45;2.35;;;14.20;1.00;;;;;;20880248;28;20048;-43
2023/07/26 00:51:11;;;;;;;3.45;2.28;;;14.10;1.00;;;;;;20883210;28;20557;-43
2023/07/26 01:01:12;;;;;;;3.03;2.03;;;14.00;1.00;;;;;;20875384;28;20040;-43
2023/07/26 01:11:34;;;;;;;3.45;2.08;;;13.90;1.00;;;;;;20876877;28;20049;-43
2023/07/26 01:21:35;;;;;;;4.55;2.15;;;13.70;1.00;;;;;;20875034;28;20081;-43
2023/07/26 01:31:38;;;;;;;3.80;2.47;;;13.50;1.00;;;;;;20876507;28;20044;-43
2023/07/26 01:41:40;;;;;;;3.88;2.58;;;13.40;1.00;;;;;;20834128;28;20642;-43
2023/07/26 01:51:41;;;;;;;4.18;2.40;;;13.30;1.00;;;;;;20827483;28;20038;-43
2023/07/26 02:01:42;;;;;;;3.00;2.40;;;13.20;1.00;;;;;;20842410;28;20037;-42
2023/07/26 02:11:43;;;;;;;5.32;3.33;;;13.10;1.00;;;;;;20853522;28;20044;-43
2023/07/26 02:21:44;;;;;;;6.28;3.70;;;13.10;1.00;;;;;;20866060;28;20037;-43
2023/07/26 02:31:45;;;;;;;5.07;3.83;;;13.00;1.30;;;;;;20860859;28;20060;-43
2023/07/26 02:41:46;;;;;;;5.80;3.40;;;12.90;1.00;;;;;;20811284;28;20034;-44
2023/07/26 02:51:47;;;;;;;5.80;3.70;;;12.80;2.30;;;;;;20785946;28;20048;-44
2023/07/26 03:01:49;;;;;;;5.85;3.90;;;12.80;9.40;;;;;;20787469;28;20037;-44
2023/07/26 03:11:50;;;;;;;6.80;4.85;;;12.70;10.40;;;;;;20791168;28;20045;-44
2023/07/26 03:21:51;;;;;;;7.63;5.03;;;12.60;15.00;;;;;;20798688;28;20059;-44
2023/07/26 03:31:52;;;;;;;6.40;5.20;;;12.70;23.40;;;;;;20809692;28;20063;-44
2023/07/26 03:41:53;;;;;;;12.38;6.38;;;12.70;35.90;;;;;;20801866;28;20049;-44
2023/07/26 03:51:54;;;;;;;8.23;5.60;;;12.80;50.50;;;;;;20806100;28;20651;-44
2023/07/26 04:01:55;;;;;;;7.90;6.13;;;13.00;44.50;;;;;;20797689;28;20505;-44
2023/07/26 04:11:57;;;;;;;8.90;6.25;;;13.10;43.10;;;;;;20800628;28;20057;-44
2023/07/26 04:21:58;;;;;;;9.13;6.20;;;13.30;34.30;;;;;;20808565;28;20262;-44
2023/07/26 04:31:59;;;;;;;10.65;7.53;;;13.50;6.70;;;;;;20798620;28;20263;-44
2023/07/26 04:42:00;;;;;;;8.38;6.57;;;13.50;9.00;;;;;;20805519;28;20528;-44
2023/07/26 04:52:01;;;;;;;9.00;6.97;;;13.60;1.00;;;;;;20804990;28;20044;-44
2023/07/26 05:02:02;;;;;;;10.85;6.35;;;13.70;1.00;;;;;;20803926;28;20056;-44
2023/07/26 05:12:04;;;;;;;9.60;5.97;;;13.90;3.30;;;;;;20797440;28;20856;-44
2023/07/26 05:22:06;;;;;;;8.15;5.43;;;14.20;1.00;;;;;;20798579;28;20213;-44
2023/07/26 05:32:07;;;;;;;9.10;6.18;;;14.30;1.00;;;;;;20796273;28;20041;-44
2023/07/26 05:42:09;;;;;;;7.85;5.88;;;14.20;5.10;;;;;;20795269;28;20060;-44
2023/07/26 05:52:10;;;;;;;10.80;7.15;;;14.00;39.90;;;;;;20792258;28;20045;-45
2023/07/26 06:02:11;;;;;;;10.88;7.18;;;13.90;76.50;;;;;;20785661;28;20056;-46
2023/07/26 06:12:12;;;;;;;10.63;6.65;;;13.70;99.90;;;;;;20789238;28;20053;-45
2023/07/26 06:22:13;;;;;;;6.05;4.13;;;13.70;99.90;;;;;;20778815;28;20052;-44
2023/07/26 06:32:14;;;;;;;5.38;3.80;;;13.40;99.90;;;;;;20777595;28;20048;-43
2023/07/26 06:42:15;;;;;;;5.53;3.33;;;13.10;99.90;;;;;;20796264;28;20545;-43
2023/07/26 06:52:16;;;;;;;5.45;3.28;;;13.00;99.90;;;;;;20796722;28;20793;-42
2023/07/26 07:02:18;;;;;;;4.75;2.60;;;12.90;99.90;;;;;;20805252;28;20567;-43
2023/07/26 07:12:19;;;;;;;4.18;1.95;;;13.00;99.90;;;;;;20813195;28;20041;-42
2023/07/26 07:22:21;;;;;;;3.92;2.05;;;13.20;99.90;;;;;;20801773;28;20038;-43
2023/07/26 07:32:22;;;;;;;4.85;2.53;;;13.20;99.90;;;;;;20806314;28;20416;-42
2023/07/26 07:42:23;;;;;;;6.72;4.45;;;13.50;99.90;;;;;;20864153;28;20052;-42
2023/07/26 07:52:24;;;;;;;9.15;5.80;;;14.10;99.90;;;;;;20857852;28;20037;-42
2023/07/26 08:02:25;;;;;;;9.57;8.18;;;14.50;99.90;;;;;;20865454;28;20047;-43
2023/07/26 08:12:26;;;;;;;13.30;9.23;;;15.20;99.90;;;;;;20845217;28;20041;-42
2023/07/26 08:22:28;;;;;;;9.50;6.90;;;15.40;99.90;;;;;;20857816;28;20043;-42
2023/07/26 08:32:29;;;;;;;9.15;6.07;;;15.90;99.90;;;;;;20856051;28;20041;-42
2023/07/26 08:42:30;;;;;;;9.93;4.40;;;16.40;99.90;;;;;;20840462;28;20036;-42
2023/07/26 08:52:32;;;;;;;8.20;3.83;;;16.20;65.00;;;;;;20873601;28;20045;-42
2023/07/26 09:02:35;;;;;;;8.65;4.28;;;16.30;91.40;;;;;;20874605;28;20044;-42
2023/07/26 09:12:36;;;;;;;7.10;3.20;;;16.50;22.40;;;;;;20867834;28;20037;-42
2023/07/26 09:22:40;;;;;;;5.88;3.13;;;16.60;15.30;;;;;;20870892;28;20033;-42
2023/07/26 09:32:41;;;;;;;5.68;2.92;;;17.30;1.00;;;;;;20863384;28;20053;-42
2023/07/26 09:42:44;;;;;;;4.10;1.98;;;17.90;1.00;;;;;;20845923;28;20538;-42
2023/07/26 09:52:46;;;;;;;5.63;2.22;;;18.70;1.00;;;;;;20811473;28;20404;-42
2023/07/26 10:02:52;;;;;;;4.03;2.33;;;18.70;1.00;;;;;;20873535;28;20044;-42
2023/07/26 10:12:57;;;;;;;4.57;2.10;;;18.10;1.00;;;;;;20866626;28;20044;-42
2023/07/26 10:23:03;;;;;;;3.88;1.80;;;19.70;1.00;;;;;;20876032;28;20439;-43
2023/07/26 10:33:13;;;;;;;4.72;2.17;;;20.00;1.00;;;;;;20839828;28;21505;-42
2023/07/26 10:43:20;;;;;;;4.28;2.30;;;20.10;1.00;;;;;;20859219;28;20044;-42
2023/07/26 10:53:38;;;;;;;4.23;2.03;;;20.00;1.00;;;;;;20889166;28;20041;-42
2023/07/26 11:03:41;;;;;;;;;;;20.40;1.00;;;;;;20910362;28;20443;-42
2023/07/26 11:13:43;;;;;;;5.32;2.50;;;20.60;1.00;;;;;;20909059;28;19921;-42
2023/07/26 11:23:44;;;;;;;4.25;2.45;;;21.10;1.00;;;;;;20912683;28;20033;-42
2023/07/26 11:33:45;;;;;;;6.80;2.40;;;20.50;1.00;;;;;;20911359;28;20408;-42
2023/07/26 11:43:46;;;;;;;6.20;2.20;;;20.50;1.00;;;;;;20913921;28;20056;-43
2023/07/26 11:53:48;;;;;;;3.85;2.33;;;20.80;1.00;;;;;;20909843;28;20118;-43
2023/07/26 12:03:49;;;;;;;4.35;2.35;;;21.10;1.00;;;;;;20906383;28;20071;-43
2023/07/26 12:13:57;;;;;;;3.88;2.25;;;21.40;1.00;;;;;;20910534;28;20033;-43
2023/07/26 12:24:00;;;;;;;4.47;2.47;;;21.70;1.00;;;;;;20904109;28;20437;-43
2023/07/26 12:34:09;;;;;;;3.70;2.33;;;21.50;1.00;;;;;;20902066;28;20048;-43
2023/07/26 12:44:10;;;;;;;5.25;2.05;;;21.40;1.00;;;;;;20901593;28;20323;-43
2023/07/26 12:54:11;;;;;;;3.70;2.28;;;21.30;1.00;;;;;;20897930;28;20037;-43
2023/07/26 13:04:12;;;;;;;4.95;2.40;;;20.80;1.00;;;;;;20894915;28;20785;-43
2023/07/26 13:14:13;;;;;;;3.63;1.90;;;21.10;1.00;;;;;;20890049;28;20048;-44
2023/07/26 13:24:14;;;;;;;4.20;2.08;;;21.90;1.00;;;;;;20891728;28;20408;-44
2023/07/26 13:34:15;;;;;;;4.25;1.85;;;22.30;1.00;;;;;;20895037;28;20044;-44
2023/07/26 13:44:16;;;;;;;4.57;2.15;;;22.60;1.00;;;;;;20890217;28;20044;-44
2023/07/26 13:54:17;;;;;;;3.80;2.15;;;22.70;1.00;;;;;;20884352;28;20037;-44
2023/07/26 14:04:18;;;;;;;4.35;2.15;;;22.70;1.00;;;;;;20873953;28;20044;-44
2023/07/26 14:14:20;;;;;;;3.95;2.05;;;22.40;1.00;;;;;;20892541;28;20048;-44
2023/07/26 14:24:21;;;;;;;3.90;1.90;;;22.10;1.00;;;;;;20867136;28;20044;-44
2023/07/26 14:34:22;;;;;;;5.80;1.92;;;22.10;1.00;;;;;;20880227;28;20071;-45
2023/07/26 14:44:23;;;;;;;3.63;1.90;;;22.20;1.00;;;;;;20876751;28;20048;-44
2023/07/26 14:54:24;;;;;;;2.63;1.67;;;22.30;1.00;;;;;;20865707;28;20059;-44
2023/07/26 15:04:26;;;;;;;4.18;1.83;;;22.00;1.00;;;;;;20877260;28;20044;-45
2023/07/26 15:14:27;;;;;;;5.50;1.80;;;22.00;1.00;;;;;;20852191;28;20041;-44
2023/07/26 15:24:28;;;;;;;3.17;1.40;;;21.70;1.00;;;;;;20860038;28;20478;-44
2023/07/26 15:34:29;;;;;;;3.03;1.48;;;21.70;1.00;;;;;;20862988;28;20045;-44
2023/07/26 15:44:30;;;;;;;3.33;1.90;;;21.50;1.00;;;;;;20878653;28;20045;-44
2023/07/26 15:54:31;;;;;;;4.20;1.67;;;21.30;1.00;;;;;;20871542;28;20044;-44
2023/07/26 16:04:32;;;;;;;3.92;1.50;;;21.30;1.00;;;;;;20870513;28;20040;-45
2023/07/26 16:14:36;;;;;;;2.85;1.80;;;21.10;1.00;;;;;;20860544;28;20055;-45
2023/07/26 16:24:38;;;;;;;2.42;1.35;;;21.20;1.00;;;;;;20879794;28;20067;-44
2023/07/26 16:34:39;;;;;;;4.43;1.65;;;20.90;1.00;;;;;;20880692;28;20052;-44
2023/07/26 16:44:40;;;;;;;2.85;1.27;;;20.70;1.00;;;;;;20881831;28;20264;-44
2023/07/26 16:54:41;;;;;;;2.72;1.60;;;20.60;1.00;;;;;;20858848;28;20485;-44
2023/07/26 17:04:42;;;;;;;2.95;1.48;;;20.30;1.00;;;;;;20869918;28;20044;-44
2023/07/26 17:14:43;;;;;;;3.03;1.88;;;20.20;1.00;;;;;;20868403;28;20064;-44
2023/07/26 17:24:44;;;;;;;2.30;1.30;;;20.30;1.00;;;;;;20824942;28;20044;-45
2023/07/26 17:34:45;;;;;;;2.45;1.30;;;20.00;1.00;;;;;;20861000;28;20056;-44
2023/07/26 17:44:47;;;;;;;2.15;1.10;;;19.90;1.00;;;;;;20846072;28;20583;-44
2023/07/26 17:54:48;;;;;;;4.82;1.85;;;19.80;1.00;;;;;;20837718;28;20384;-44
2023/07/26 18:04:49;;;;;;;2.88;1.60;;;19.70;1.00;;;;;;20868405;28;20033;-44
2023/07/26 18:14:51;;;;;;;2.92;1.60;;;19.60;1.00;;;;;;20886491;28;20400;-44
2023/07/26 18:24:52;;;;;;;5.38;1.65;;;19.40;1.00;;;;;;20846490;28;20530;-44
2023/07/26 18:34:53;;;;;;;2.50;1.30;;;19.10;1.00;;;;;;20812090;28;20496;-44
2023/07/26 18:44:55;;;;;;;2.58;1.45;;;19.00;1.00;;;;;;20887174;28;20044;-44
2023/07/26 18:54:56;;;;;;;4.28;1.80;;;18.80;1.00;;;;;;20903325;28;20467;-44
2023/07/26 19:04:57;;;;;;;4.25;1.70;;;18.50;1.00;;;;;;20901606;28;20048;-44
2023/07/26 19:14:58;;;;;;;2.50;1.40;;;18.30;1.00;;;;;;20887314;28;20586;-44
2023/07/26 19:24:59;;;;;;;2.58;1.40;;;18.10;1.00;;;;;;20886815;28;20044;-44
2023/07/26 19:35:01;;;;;;;3.17;1.35;;;18.00;1.00;;;;;;20886604;28;20045;-44
2023/07/26 19:45:03;;;;;;;2.75;1.48;;;17.80;1.00;;;;;;20880216;28;20362;-44
2023/07/26 19:55:07;;;;;;;4.22;1.83;;;17.80;1.00;;;;;;20875045;28;20487;-44
2023/07/26 20:05:08;;;;;;;4.30;1.67;;;17.80;1.00;;;;;;20875113;28;20155;-44
2023/07/26 20:15:09;;;;;;;4.20;1.80;;;17.70;1.00;;;;;;20884784;28;20041;-44
2023/07/26 20:25:10;;;;;;;3.45;1.80;;;17.60;1.00;;;;;;20869443;28;20032;-44
2023/07/26 20:35:11;;;;;;;3.85;1.77;;;17.40;1.00;;;;;;20895989;28;20296;-44
2023/07/26 20:45:12;;;;;;;3.05;1.40;;;17.20;1.00;;;;;;20890466;28;20044;-44
2023/07/26 20:55:13;;;;;;;3.47;2.22;;;16.90;1.00;;;;;;20874683;28;20045;-44
2023/07/26 21:05:15;;;;;;;3.50;1.80;;;16.80;1.00;;;;;;20893561;28;20040;-44
2023/07/26 21:15:18;;;;;;;3.88;1.90;;;16.80;1.00;;;;;;20898046;28;20040;-44
2023/07/26 21:25:19;;;;;;;3.40;2.00;;;16.90;1.00;;;;;;20890791;28;20036;-44
2023/07/26 21:35:20;;;;;;;4.80;2.50;;;17.10;1.00;;;;;;20890370;28;20420;-44
2023/07/26 21:45:21;;;;;;;5.07;2.65;;;17.20;1.00;;;;;;20884612;28;20040;-44
2023/07/26 21:55:22;;;;;;;3.50;2.22;;;17.40;1.00;;;;;;20823228;28;20052;-44
2023/07/26 22:05:23;;;;;;;4.15;2.40;;;17.30;1.00;;;;;;20812618;28;20603;-44
2023/07/26 22:15:24;;;;;;;6.50;2.90;;;17.10;1.00;;;;;;20810986;28;20563;-44
2023/07/26 22:25:26;;;;;;;4.95;2.85;;;17.10;1.00;;;;;;20859830;28;20037;-44
2023/07/26 22:35:27;;;;;;;5.70;3.35;;;17.20;1.00;;;;;;20852515;28;20946;-44
2023/07/26 22:45:29;;;;;;;5.25;3.20;;;17.20;1.00;;;;;;20780032;28;20420;-44
2023/07/26 22:55:30;;;;;;;6.82;3.00;;;17.10;1.00;;;;;;20879949;28;20048;-44
2023/07/26 23:05:31;;;;;;;5.45;3.13;;;17.00;1.00;;;;;;20877725;28;20052;-44
2023/07/26 23:15:32;;;;;;;5.28;2.65;;;17.00;1.00;;;;;;20882012;28;20712;-44
2023/07/26 23:25:33;;;;;;;6.15;3.28;;;17.00;1.00;;;;;;20869038;28;20055;-44
2023/07/26 23:35:34;;;;;;;12.48;6.97;;;17.00;1.00;;;;;;20884809;28;20037;-44
2023/07/26 23:45:36;;;;;;;12.98;8.70;;;17.00;1.00;;;;;;20883008;28;20594;-44
2023/07/26 23:55:37;;;;;;;13.65;7.82;;;17.00;1.00;;;;;;20884033;28;20400;-44
